Time;durP1;ratioP1;P1;durP2;ratioP2;P2;SDS_P1;SDS_P2;PMS_P1;PMS_P2;Temp;Humidity;BMP_temperature;BMP_pressure;BME280_temperature;BME280_humidity;BME280_pressure;Samples;Min_cycle;Max_cycle;Signal;HPM_P1;HPM_P2
2023/01/26 00:01:20;;;;;;;;;;;34.00;93.60;;;;;;5028308;28;20355;-70
2023/01/26 00:03:47;;;;;;;;;;;33.90;93.00;;;;;;5029931;28;20383;-70
2023/01/26 00:06:14;;;;;;;;;;;33.60;93.90;;;;;;5030179;28;19913;-72
2023/01/26 00:08:43;;;;;;;;;;;33.60;93.90;;;;;;5029360;28;19909;-73
2023/01/26 00:11:10;;;;;;;;;;;33.80;93.50;;;;;;5029096;28;20104;-71
2023/01/26 00:13:37;;;;;;;;;;;33.80;94.00;;;;;;5028152;28;20003;-72
2023/01/26 00:16:07;;;;;;;;;;;34.10;93.10;;;;;;5026900;28;20465;-74
2023/01/26 00:18:39;;;;;;;;;;;34.40;93.70;;;;;;5029240;28;20020;-72
2023/01/26 00:21:07;;;;;;;;;;;34.60;92.80;;;;;;5027946;28;20137;-73
2023/01/26 00:23:34;;;;;;;;;;;34.80;91.30;;;;;;5028968;28;19996;-73
2023/01/26 00:26:01;;;;;;;;;;;34.70;91.20;;;;;;5028059;28;19926;-74
2023/01/26 00:28:28;;;;;;;;;;;34.70;91.30;;;;;;5029508;28;20043;-72
2023/01/26 00:31:01;;;;;;;;;;;34.60;90.80;;;;;;5027077;28;19940;-74
2023/01/26 00:33:28;;;;;;;;;;;34.70;91.00;;;;;;5029011;28;22025;-71
2023/01/26 00:35:55;;;;;;;;;;;34.70;90.70;;;;;;5027546;28;20020;-74
2023/01/26 00:38:21;;;;;;;;;;;34.80;90.40;;;;;;5029027;28;19916;-70
2023/01/26 00:40:48;;;;;;;;;;;34.80;90.70;;;;;;5026865;28;19916;-73
2023/01/26 00:43:15;;;;;;;;;;;34.90;90.10;;;;;;5027646;28;19912;-72
2023/01/26 00:45:42;;;;;;;;;;;35.00;90.50;;;;;;5026546;28;20005;-72
2023/01/26 00:48:10;;;;;;;;;;;35.20;91.00;;;;;;5028853;28;21466;-74
2023/01/26 00:50:36;;;;;;;;;;;35.30;88.90;;;;;;5030114;28;20303;-74
2023/01/26 00:53:03;;;;;;;;;;;35.30;88.00;;;;;;5033224;28;20391;-74
2023/01/26 00:55:33;;;;;;;;;;;35.50;89.10;;;;;;5033272;28;19921;-72
2023/01/26 00:58:04;;;;;;;;;;;35.70;88.80;;;;;;5033039;28;19943;-75
2023/01/26 01:00:33;;;;;;;;;;;36.00;89.10;;;;;;5033416;28;20321;-71
2023/01/26 01:02:59;;;;;;;;;;;36.20;88.70;;;;;;5032079;28;19913;-70
2023/01/26 01:05:27;;;;;;;;;;;36.10;88.40;;;;;;5032105;28;19920;-73
2023/01/26 01:07:54;;;;;;;;;;;35.90;90.30;;;;;;5032434;28;19916;-74
2023/01/26 01:10:21;;;;;;;;;;;36.10;90.40;;;;;;5032774;28;19944;-72
2023/01/26 01:12:48;;;;;;;;;;;36.10;88.90;;;;;;5033054;28;20564;-73
2023/01/26 01:15:14;;;;;;;;;;;36.00;90.30;;;;;;5048364;28;20290;-71
2023/01/26 01:17:41;;;;;;;;;;;36.20;90.20;;;;;;5032768;28;19940;-72
2023/01/26 01:20:09;;;;;;;;;;;36.20;88.70;;;;;;5030241;28;19955;-73
2023/01/26 01:22:36;;;;;;;;;;;36.40;90.30;;;;;;5032369;28;19913;-71
2023/01/26 01:25:04;;;;;;;;;;;36.80;90.30;;;;;;5031673;28;19943;-74
2023/01/26 01:27:30;;;;;;;;;;;37.00;89.50;;;;;;5032931;28;19962;-74
2023/01/26 01:29:57;;;;;;;;;;;37.30;90.00;;;;;;5033398;28;19917;-72
2023/01/26 01:32:24;;;;;;;;;;;37.60;88.70;;;;;;5032762;28;20006;-71
2023/01/26 01:34:50;;;;;;;;;;;38.00;88.00;;;;;;5030830;28;19951;-74
2023/01/26 01:37:17;;;;;;;;;;;38.30;86.20;;;;;;5032457;28;19916;-74
2023/01/26 01:39:44;;;;;;;;;;;38.50;87.30;;;;;;5032632;28;19940;-74
2023/01/26 01:42:10;;;;;;;;;;;38.60;86.40;;;;;;5032080;28;20295;-75
2023/01/26 01:44:38;;;;;;;;;;;38.90;87.40;;;;;;5033336;28;22347;-73
2023/01/26 01:47:25;;;;;;;;;;;39.10;79.90;;;;;;5031763;28;20477;-74
2023/01/26 01:49:52;;;;;;;;;;;38.70;77.90;;;;;;5030510;28;20011;-74
2023/01/26 01:52:26;;;;;;;;;;;38.80;79.40;;;;;;5032661;28;19920;-74
2023/01/26 01:54:55;;;;;;;;;;;38.90;80.60;;;;;;5030986;28;19963;-73
2023/01/26 01:57:39;;;;;;;;;;;39.00;82.70;;;;;;5032648;28;19912;-75
2023/01/26 02:00:09;;;;;;;;;;;39.20;79.90;;;;;;5030189;28;19923;-72
2023/01/26 02:02:36;;;;;;;;;;;39.20;80.30;;;;;;5029628;28;20022;-73
2023/01/26 02:05:10;;;;;;;;;;;39.40;79.20;;;;;;5030276;28;19921;-72
2023/01/26 02:07:37;;;;;;;;;;;39.50;77.40;;;;;;5025387;28;20439;-74
2023/01/26 02:10:19;;;;;;;;;;;39.50;75.90;;;;;;5027649;28;19924;-72
2023/01/26 02:12:48;;;;;;;;;;;39.60;77.30;;;;;;5028258;28;19935;-72
2023/01/26 02:15:15;;;;;;;;;;;39.60;78.10;;;;;;5029905;28;19920;-71
2023/01/26 02:17:41;;;;;;;;;;;39.40;75.80;;;;;;5031302;28;19913;-72
2023/01/26 02:20:08;;;;;;;;;;;39.40;76.00;;;;;;5032504;28;19999;-72
2023/01/26 02:22:35;;;;;;;;;;;39.50;77.40;;;;;;5030895;28;19909;-72
2023/01/26 02:25:06;;;;;;;;;;;39.70;76.70;;;;;;5031103;28;19912;-73
2023/01/26 02:27:33;;;;;;;;;;;39.80;75.50;;;;;;5031011;28;19913;-74
2023/01/26 02:30:00;;;;;;;;;;;40.10;76.30;;;;;;5029056;28;19912;-72
2023/01/26 02:32:27;;;;;;;;;;;40.20;75.20;;;;;;5028129;28;19927;-72
2023/01/26 02:34:57;;;;;;;;;;;40.10;72.70;;;;;;5028844;28;19920;-71
2023/01/26 02:37:24;;;;;;;;;;;40.00;70.90;;;;;;5029228;28;19913;-71
2023/01/26 02:40:00;;;;;;;;;;;39.80;71.70;;;;;;5030262;28;19948;-71
2023/01/26 02:42:40;;;;;;;;;;;39.80;72.90;;;;;;5030979;28;19909;-72
2023/01/26 02:45:11;;;;;;;;;;;39.80;73.50;;;;;;5031430;28;19920;-70
2023/01/26 02:47:39;;;;;;;;;;;39.80;72.00;;;;;;5030550;28;19909;-73
2023/01/26 02:50:09;;;;;;;;;;;39.90;74.40;;;;;;5030724;28;20398;-71
2023/01/26 02:52:36;;;;;;;;;;;40.20;72.90;;;;;;5029963;28;19909;-74
2023/01/26 02:57:47;;;;;;;;;;;40.50;72.50;;;;;;5029786;28;19924;-73
2023/01/26 03:00:24;;;;;;;;;;;40.60;72.20;;;;;;5029142;28;19982;-70
2023/01/26 03:02:52;;;;;;;;;;;40.70;72.70;;;;;;5029256;28;19917;-73
2023/01/26 03:05:19;;;;;;;;;;;40.80;72.30;;;;;;5029208;28;19916;-71
2023/01/26 03:07:45;;;;;;;;;;;40.90;70.10;;;;;;5032016;28;19908;-73
2023/01/26 03:10:12;;;;;;;;;;;41.00;72.20;;;;;;5032515;28;19920;-74
2023/01/26 03:12:39;;;;;;;;;;;41.00;68.60;;;;;;5030125;28;20416;-73
2023/01/26 03:17:50;;;;;;;;;;;41.30;70.80;;;;;;5029736;28;19978;-72
2023/01/26 03:28:30;;;;;;;;;;;40.90;68.10;;;;;;5029138;28;19920;-73
2023/01/26 03:30:57;;;;;;;;;;;39.90;68.60;;;;;;5028690;28;19932;-72
2023/01/26 03:33:24;;;;;;;;;;;39.10;66.90;;;;;;5030729;28;20279;-71
2023/01/26 03:35:52;;;;;;;;;;;38.50;68.60;;;;;;5033532;28;20005;-70
2023/01/26 03:38:19;;;;;;;;;;;37.90;69.30;;;;;;5046476;28;19956;-74
2023/01/26 03:57:14;;;;;;;;;;;35.40;77.00;;;;;;5030663;28;20394;-72
2023/01/26 03:59:41;;;;;;;;;;;34.90;76.60;;;;;;5028803;28;19917;-73
2023/01/26 04:10:24;;;;;;;;;;;33.70;79.80;;;;;;5030549;28;19919;-72
2023/01/26 04:23:56;;;;;;;;;;;32.10;88.70;;;;;;5031618;28;19966;-72
2023/01/26 04:26:23;;;;;;;;;;;31.40;89.10;;;;;;5034322;28;19912;-72
2023/01/26 04:28:50;;;;;;;;;;;31.00;92.60;;;;;;5034204;28;19924;-73
2023/01/26 04:31:17;;;;;;;;;;;30.60;94.40;;;;;;5033309;28;19923;-72
2023/01/26 04:33:44;;;;;;;;;;;30.30;96.20;;;;;;5035241;28;19923;-70
2023/01/26 04:36:11;;;;;;;;;;;30.10;94.20;;;;;;5033208;28;19925;-72
2023/01/26 04:38:37;;;;;;;;;;;30.10;96.80;;;;;;5034581;28;19917;-72
2023/01/26 04:41:04;;;;;;;;;;;30.20;97.70;;;;;;5031355;28;19917;-76
2023/01/26 04:43:31;;;;;;;;;;;30.10;97.00;;;;;;5032653;28;19966;-75
2023/01/26 04:46:01;;;;;;;;;;;30.20;96.50;;;;;;5033007;28;19917;-73
2023/01/26 04:48:28;;;;;;;;;;;30.40;97.20;;;;;;5034280;28;19925;-74
2023/01/26 04:50:56;;;;;;;;;;;30.70;97.30;;;;;;5032075;28;19948;-74
2023/01/26 04:53:23;;;;;;;;;;;30.90;96.70;;;;;;5033560;28;20442;-72
2023/01/26 04:55:50;;;;;;;;;;;31.00;95.20;;;;;;5032001;28;20023;-73
2023/01/26 04:58:20;;;;;;;;;;;31.10;94.30;;;;;;5033137;28;19912;-72
2023/01/26 05:00:50;;;;;;;;;;;31.30;94.30;;;;;;5033460;28;19947;-72
2023/01/26 05:03:20;;;;;;;;;;;31.40;97.10;;;;;;5035278;28;19999;-70
2023/01/26 05:05:50;;;;;;;;;;;31.40;96.40;;;;;;5034052;28;20357;-70
2023/01/26 05:08:17;;;;;;;;;;;31.50;95.80;;;;;;5034573;28;19923;-73
2023/01/26 05:10:44;;;;;;;;;;;31.90;95.00;;;;;;5039824;28;19943;-71
2023/01/26 05:13:11;;;;;;;;;;;32.40;95.00;;;;;;5036587;28;19921;-73
2023/01/26 05:15:37;;;;;;;;;;;32.50;94.00;;;;;;5032300;28;19931;-71
2023/01/26 05:18:05;;;;;;;;;;;32.50;93.20;;;;;;5033009;28;19913;-70
2023/01/26 05:20:31;;;;;;;;;;;32.30;93.10;;;;;;5032048;28;19917;-72
2023/01/26 05:22:58;;;;;;;;;;;32.20;93.60;;;;;;5028044;28;19985;-72
2023/01/26 05:25:25;;;;;;;;;;;32.10;92.70;;;;;;5034391;28;19920;-71
2023/01/26 05:27:52;;;;;;;;;;;32.20;92.50;;;;;;5032217;28;20024;-71
2023/01/26 05:30:19;;;;;;;;;;;32.30;92.10;;;;;;5029992;28;19917;-72
2023/01/26 05:32:46;;;;;;;;;;;32.50;91.50;;;;;;5046772;28;19916;-73
2023/01/26 05:35:22;;;;;;;;;;;32.40;91.20;;;;;;5031034;28;19944;-74
2023/01/26 05:37:58;;;;;;;;;;;32.30;90.20;;;;;;5032743;28;19951;-73
2023/01/26 05:40:28;;;;;;;;;;;32.10;90.80;;;;;;5031584;28;20417;-71
2023/01/26 05:42:54;;;;;;;;;;;32.10;90.40;;;;;;5033655;28;19939;-72
2023/01/26 05:45:21;;;;;;;;;;;32.00;90.80;;;;;;5033407;28;19998;-72
2023/01/26 05:47:48;;;;;;;;;;;32.10;90.20;;;;;;5032984;28;19917;-73
2023/01/26 05:50:15;;;;;;;;;;;31.90;89.40;;;;;;5031855;28;19917;-73
2023/01/26 05:52:45;;;;;;;;;;;31.80;88.20;;;;;;5033469;28;20325;-72
2023/01/26 05:55:12;;;;;;;;;;;31.70;89.00;;;;;;5035205;28;19917;-72
2023/01/26 05:57:39;;;;;;;;;;;31.70;88.90;;;;;;5033421;28;20402;-72
2023/01/26 06:00:06;;;;;;;;;;;31.80;89.00;;;;;;5033222;28;20457;-72
2023/01/26 06:02:32;;;;;;;;;;;32.20;88.60;;;;;;5033427;28;19923;-73
2023/01/26 06:04:59;;;;;;;;;;;32.40;88.10;;;;;;5035779;28;19939;-74
2023/01/26 06:07:26;;;;;;;;;;;32.40;88.60;;;;;;5033566;28;19953;-73
2023/01/26 06:09:52;;;;;;;;;;;32.40;88.10;;;;;;5032194;28;19919;-72
2023/01/26 06:12:20;;;;;;;;;;;32.60;86.80;;;;;;5033945;28;19909;-71
2023/01/26 06:14:47;;;;;;;;;;;32.80;86.80;;;;;;5040110;28;20454;-74
2023/01/26 06:17:14;;;;;;;;;;;32.80;85.00;;;;;;5032305;28;19920;-72
2023/01/26 06:19:41;;;;;;;;;;;32.60;88.30;;;;;;5031764;28;21677;-72
2023/01/26 06:22:08;;;;;;;;;;;32.40;87.60;;;;;;5033902;28;19916;-72
2023/01/26 06:24:35;;;;;;;;;;;32.30;87.20;;;;;;5033350;28;20064;-72
2023/01/26 06:27:05;;;;;;;;;;;32.20;87.00;;;;;;5032887;28;19915;-73
2023/01/26 06:29:32;;;;;;;;;;;32.00;86.80;;;;;;5033097;28;19994;-72
2023/01/26 06:31:59;;;;;;;;;;;31.90;86.00;;;;;;5032170;28;19916;-72
2023/01/26 06:34:27;;;;;;;;;;;31.90;86.10;;;;;;5032097;28;19924;-71
2023/01/26 06:36:53;;;;;;;;;;;31.80;86.20;;;;;;5033089;28;19928;-73
2023/01/26 06:39:20;;;;;;;;;;;31.70;87.00;;;;;;5033158;28;19975;-71
2023/01/26 06:41:47;;;;;;;;;;;31.70;86.60;;;;;;5033413;28;19915;-72
2023/01/26 06:44:13;;;;;;;;;;;31.90;87.10;;;;;;5032732;28;20405;-71
2023/01/26 06:46:40;;;;;;;;;;;32.10;86.90;;;;;;5032805;28;19919;-72
2023/01/26 06:49:08;;;;;;;;;;;32.20;85.40;;;;;;5033334;28;20011;-71
2023/01/26 06:51:58;;;;;;;;;;;32.10;85.40;;;;;;5031672;28;19913;-72
2023/01/26 06:54:25;;;;;;;;;;;32.10;85.70;;;;;;5025213;28;19974;-72
2023/01/26 06:56:52;;;;;;;;;;;32.00;86.60;;;;;;5032408;28;19935;-71
2023/01/26 06:59:18;;;;;;;;;;;32.00;87.70;;;;;;5035529;28;19948;-72
2023/01/26 07:01:49;;;;;;;;;;;31.90;87.70;;;;;;5032812;28;19913;-72
2023/01/26 07:04:17;;;;;;;;;;;31.80;88.20;;;;;;5033752;28;19951;-73
2023/01/26 07:06:44;;;;;;;;;;;31.70;88.40;;;;;;5033355;28;20134;-72
2023/01/26 07:09:11;;;;;;;;;;;31.50;88.20;;;;;;5038168;28;20346;-72
2023/01/26 07:11:37;;;;;;;;;;;31.50;88.40;;;;;;5031550;28;19920;-73
2023/01/26 07:14:04;;;;;;;;;;;31.40;87.60;;;;;;5032382;28;20334;-72
2023/01/26 07:16:31;;;;;;;;;;;31.30;87.70;;;;;;5031897;28;20390;-71
2023/01/26 07:18:58;;;;;;;;;;;31.30;85.40;;;;;;5033952;28;19920;-73
2023/01/26 07:21:24;;;;;;;;;;;31.20;84.80;;;;;;5032158;28;19909;-73
2023/01/26 07:23:52;;;;;;;;;;;31.10;85.80;;;;;;5032063;28;19912;-72
2023/01/26 07:26:19;;;;;;;;;;;31.00;85.80;;;;;;5031795;28;19954;-72
2023/01/26 07:28:46;;;;;;;;;;;30.90;85.90;;;;;;5032187;28;20025;-73
2023/01/26 07:31:13;;;;;;;;;;;30.90;86.50;;;;;;5031372;28;20372;-71
2023/01/26 07:33:39;;;;;;;;;;;30.90;87.10;;;;;;5032333;28;19916;-71
2023/01/26 07:36:06;;;;;;;;;;;30.80;86.30;;;;;;5031926;28;20632;-73
2023/01/26 07:38:33;;;;;;;;;;;30.90;86.70;;;;;;5034230;28;19928;-71
2023/01/26 07:41:04;;;;;;;;;;;30.80;86.80;;;;;;5032310;28;19944;-72
2023/01/26 07:43:32;;;;;;;;;;;30.70;88.70;;;;;;5034539;28;19919;-73
2023/01/26 07:45:58;;;;;;;;;;;30.60;90.00;;;;;;5031905;28;20462;-72
2023/01/26 07:48:25;;;;;;;;;;;30.50;90.60;;;;;;5031084;28;20004;-72
2023/01/26 07:51:02;;;;;;;;;;;30.40;91.10;;;;;;5032174;28;19988;-71
2023/01/26 07:53:29;;;;;;;;;;;30.30;91.80;;;;;;5032328;28;19916;-73
2023/01/26 07:56:09;;;;;;;;;;;30.20;92.60;;;;;;5031068;28;19921;-72
2023/01/26 07:58:36;;;;;;;;;;;30.20;93.10;;;;;;5032061;28;20027;-73
2023/01/26 08:01:06;;;;;;;;;;;30.10;93.50;;;;;;5029689;28;19912;-72
2023/01/26 08:03:32;;;;;;;;;;;30.00;93.80;;;;;;5032880;28;21577;-72
2023/01/26 08:05:59;;;;;;;;;;;29.90;94.20;;;;;;5032481;28;20012;-73
2023/01/26 08:08:26;;;;;;;;;;;29.90;94.20;;;;;;5032340;28;19912;-72
2023/01/26 08:10:59;;;;;;;;;;;29.90;94.10;;;;;;5031861;28;19913;-72
2023/01/26 08:13:27;;;;;;;;;;;29.80;94.00;;;;;;5040265;28;19913;-72
2023/01/26 08:15:54;;;;;;;;;;;29.80;94.30;;;;;;5032621;28;20995;-71
2023/01/26 08:18:20;;;;;;;;;;;29.70;94.30;;;;;;5044436;28;20287;-71
2023/01/26 08:20:51;;;;;;;;;;;29.70;94.40;;;;;;5030797;28;19921;-72
2023/01/26 08:23:19;;;;;;;;;;;29.60;93.60;;;;;;5031579;28;19921;-72
2023/01/26 08:25:45;;;;;;;;;;;29.50;93.30;;;;;;5032660;28;19916;-70
2023/01/26 08:28:12;;;;;;;;;;;29.30;92.80;;;;;;5032825;28;19920;-71
2023/01/26 08:30:39;;;;;;;;;;;29.20;92.70;;;;;;5031101;28;19960;-71
2023/01/26 08:33:06;;;;;;;;;;;29.10;92.80;;;;;;5029858;28;21524;-72
2023/01/26 08:35:33;;;;;;;;;;;28.90;92.90;;;;;;5031265;28;19921;-72
2023/01/26 08:38:00;;;;;;;;;;;28.70;93.10;;;;;;5031414;28;19908;-71
2023/01/26 08:40:26;;;;;;;;;;;28.60;93.00;;;;;;5030253;28;20290;-71
2023/01/26 08:42:53;;;;;;;;;;;28.50;93.10;;;;;;5030674;28;19991;-72
2023/01/26 08:45:23;;;;;;;;;;;28.40;92.90;;;;;;5046718;28;19927;-72
2023/01/26 08:47:52;;;;;;;;;;;28.30;93.30;;;;;;5030592;28;19991;-71
2023/01/26 08:50:19;;;;;;;;;;;28.10;93.40;;;;;;5029367;28;19924;-70
2023/01/26 08:52:45;;;;;;;;;;;28.10;93.60;;;;;;5029189;28;20282;-72
2023/01/26 08:55:15;;;;;;;;;;;28.00;93.80;;;;;;5030224;28;19923;-71
2023/01/26 08:57:42;;;;;;;;;;;27.80;94.00;;;;;;5030582;28;19920;-71
2023/01/26 09:00:09;;;;;;;;;;;27.70;94.50;;;;;;5031209;28;20015;-73
2023/01/26 09:02:36;;;;;;;;;;;27.60;95.20;;;;;;5030353;28;20003;-72
2023/01/26 09:05:03;;;;;;;;;;;27.50;95.40;;;;;;5030579;28;19909;-72
2023/01/26 09:07:29;;;;;;;;;;;27.40;95.70;;;;;;5032384;28;19909;-71
2023/01/26 09:09:56;;;;;;;;;;;27.30;96.00;;;;;;5029815;28;19917;-71
2023/01/26 09:12:22;;;;;;;;;;;27.20;96.30;;;;;;5031239;28;19917;-70
2023/01/26 09:14:49;;;;;;;;;;;27.10;96.50;;;;;;5041937;28;19934;-71
2023/01/26 09:17:16;;;;;;;;;;;27.00;96.70;;;;;;5034662;28;19921;-71
2023/01/26 09:19:42;;;;;;;;;;;27.00;96.70;;;;;;5035089;28;19919;-72
2023/01/26 09:22:09;;;;;;;;;;;26.90;96.10;;;;;;5032906;28;19964;-72
2023/01/26 09:24:35;;;;;;;;;;;26.80;96.30;;;;;;5033317;28;19928;-70
2023/01/26 09:27:02;;;;;;;;;;;26.70;96.50;;;;;;5033775;28;19913;-72
2023/01/26 09:29:29;;;;;;;;;;;26.60;96.80;;;;;;5034086;28;19923;-72
2023/01/26 09:31:55;;;;;;;;;;;26.50;97.20;;;;;;5032775;28;19913;-71
2023/01/26 09:34:24;;;;;;;;;;;26.50;97.40;;;;;;5035204;28;19917;-71
2023/01/26 09:36:50;;;;;;;;;;;26.40;97.80;;;;;;5033468;28;19931;-71
2023/01/26 09:39:17;;;;;;;;;;;26.40;98.00;;;;;;5033846;28;19916;-69
2023/01/26 09:42:06;;;;;;;;;;;26.40;98.30;;;;;;5033814;28;20279;-71
2023/01/26 09:44:37;;;;;;;;;;;26.40;98.80;;;;;;5033493;28;20283;-71
2023/01/26 09:47:12;;;;;;;;;;;26.40;98.20;;;;;;5033041;28;19912;-73
2023/01/26 09:49:47;;;;;;;;;;;26.40;98.20;;;;;;5033839;28;20213;-71
2023/01/26 09:52:28;;;;;;;;;;;26.40;98.20;;;;;;5032831;28;20651;-73
2023/01/26 09:54:56;;;;;;;;;;;26.40;98.30;;;;;;5032032;28;20283;-72
2023/01/26 09:57:32;;;;;;;;;;;26.30;98.40;;;;;;5032264;28;20400;-73
2023/01/26 10:00:08;;;;;;;;;;;26.20;98.70;;;;;;5034601;28;19913;-71
2023/01/26 10:02:38;;;;;;;;;;;26.20;98.50;;;;;;5032691;28;19975;-71
2023/01/26 10:05:11;;;;;;;;;;;26.10;98.80;;;;;;5032798;28;19913;-71
2023/01/26 10:07:38;;;;;;;;;;;26.10;98.70;;;;;;5032601;28;20021;-72
2023/01/26 10:10:04;;;;;;;;;;;26.00;98.70;;;;;;5024662;28;20003;-72
2023/01/26 10:12:34;;;;;;;;;;;26.10;99.10;;;;;;5032914;28;19925;-72
2023/01/26 10:15:07;;;;;;;;;;;26.00;99.90;;;;;;5040430;28;19925;-72
2023/01/26 10:17:34;;;;;;;;;;;25.80;99.90;;;;;;5032116;28;19913;-72
2023/01/26 10:20:05;;;;;;;;;;;25.50;99.90;;;;;;5032581;28;19969;-72
2023/01/26 10:22:37;;;;;;;;;;;25.30;99.90;;;;;;5032627;28;20365;-71
2023/01/26 10:25:11;;;;;;;;;;;25.20;99.90;;;;;;5032683;28;20653;-72
2023/01/26 10:27:38;;;;;;;;;;;25.10;99.90;;;;;;5033041;28;19931;-72
2023/01/26 10:30:05;;;;;;;;;;;24.80;99.90;;;;;;5031349;28;20003;-70
2023/01/26 10:32:34;;;;;;;;;;;24.70;99.90;;;;;;5032184;28;20011;-72
2023/01/26 10:35:00;;;;;;;;;;;24.50;99.90;;;;;;5030946;28;19921;-71
2023/01/26 10:37:29;;;;;;;;;;;24.40;99.90;;;;;;5031752;28;20425;-71
2023/01/26 10:40:03;;;;;;;;;;;24.30;99.90;;;;;;5031544;28;19952;-72
2023/01/26 10:42:31;;;;;;;;;;;24.10;99.90;;;;;;5031333;28;20003;-71
2023/01/26 10:45:00;;;;;;;;;;;24.00;99.90;;;;;;5031811;28;19926;-72
2023/01/26 10:47:27;;;;;;;;;;;24.00;99.90;;;;;;5031745;28;19920;-70
2023/01/26 10:50:20;;;;;;;;;;;23.90;99.90;;;;;;5031061;28;20341;-71
2023/01/26 10:53:05;;;;;;;;;;;23.90;99.90;;;;;;5031413;28;19959;-73
2023/01/26 10:55:32;;;;;;;;;;;23.80;99.90;;;;;;5031666;28;19925;-72
2023/01/26 10:58:00;;;;;;;;;;;23.70;99.90;;;;;;5031461;28;19959;-73
2023/01/26 11:00:32;;;;;;;;;;;23.60;99.90;;;;;;5030706;28;20372;-70
2023/01/26 11:03:04;;;;;;;;;;;23.50;99.90;;;;;;5032737;28;20286;-72
2023/01/26 11:05:30;;;;;;;;;;;23.40;99.90;;;;;;5032955;28;19915;-71
2023/01/26 11:07:59;;;;;;;;;;;23.40;99.90;;;;;;5037169;28;19917;-72
2023/01/26 11:10:26;;;;;;;;;;;23.40;99.90;;;;;;5032317;28;19913;-72
2023/01/26 11:13:12;;;;;;;;;;;23.30;99.90;;;;;;5031197;28;19934;-73
2023/01/26 11:15:44;;;;;;;;;;;23.40;99.90;;;;;;5023345;28;19929;-73
2023/01/26 11:18:11;;;;;;;;;;;23.40;99.90;;;;;;5030813;28;20501;-72
2023/01/26 11:20:58;;;;;;;;;;;23.40;99.90;;;;;;5032146;28;20461;-73
2023/01/26 11:23:43;;;;;;;;;;;23.40;99.90;;;;;;5030908;28;20394;-73
2023/01/26 11:26:17;;;;;;;;;;;23.40;99.90;;;;;;5031619;28;20375;-73
2023/01/26 11:28:46;;;;;;;;;;;23.30;99.90;;;;;;5031190;28;20348;-72
2023/01/26 11:31:16;;;;;;;;;;;23.30;99.90;;;;;;5031900;28;19923;-72
2023/01/26 11:33:43;;;;;;;;;;;23.20;99.90;;;;;;5031417;28;19917;-72
2023/01/26 11:36:13;;;;;;;;;;;23.20;99.90;;;;;;5030447;28;19921;-72
2023/01/26 11:38:45;;;;;;;;;;;23.10;99.90;;;;;;5030363;28;19916;-73
2023/01/26 11:41:30;;;;;;;;;;;23.10;99.90;;;;;;5030706;28;20243;-72
2023/01/26 11:44:34;;;;;;;;;;;23.00;99.90;;;;;;5031256;28;19944;-72
2023/01/26 11:47:03;;;;;;;;;;;23.00;99.90;;;;;;4991580;28;20799;-74
2023/01/26 11:49:30;;;;;;;;;;;22.90;99.90;;;;;;5030816;28;19916;-73
2023/01/26 11:52:03;;;;;;;;;;;22.80;99.90;;;;;;5035734;28;19912;-71
2023/01/26 11:54:31;;;;;;;;;;;22.70;99.90;;;;;;5035886;28;19917;-74
2023/01/26 11:57:14;;;;;;;;;;;22.60;99.90;;;;;;5033823;28;19925;-71
2023/01/26 12:00:00;;;;;;;;;;;22.50;99.90;;;;;;5033500;28;19920;-71
2023/01/26 12:02:35;;;;;;;;;;;22.30;99.90;;;;;;5035594;28;19964;-74
2023/01/26 12:05:30;;;;;;;;;;;22.30;99.90;;;;;;5029352;28;20708;-75
2023/01/26 12:08:11;;;;;;;;;;;22.20;99.90;;;;;;5019657;28;19919;-71
2023/01/26 12:11:21;;;;;;;;;;;22.20;99.90;;;;;;5029685;28;19923;-74
2023/01/26 12:14:07;;;;;;;;;;;22.20;99.90;;;;;;5031871;28;19917;-73
2023/01/26 12:16:52;;;;;;;;;;;22.20;99.90;;;;;;5022572;28;19928;-74
2023/01/26 12:19:36;;;;;;;;;;;22.20;99.90;;;;;;5030611;28;19919;-74
2023/01/26 12:22:11;;;;;;;;;;;22.10;99.90;;;;;;5030105;28;19923;-72
2023/01/26 12:24:41;;;;;;;;;;;22.00;99.90;;;;;;5044706;28;19920;-73
2023/01/26 12:27:20;;;;;;;;;;;22.00;99.90;;;;;;5030911;28;19919;-75
2023/01/26 12:30:13;;;;;;;;;;;21.90;99.90;;;;;;5031303;28;19913;-72
2023/01/26 12:32:40;;;;;;;;;;;21.80;99.90;;;;;;5014331;28;20592;-71
2023/01/26 12:35:10;;;;;;;;;;;21.70;99.90;;;;;;5029515;28;19931;-71
2023/01/26 12:37:46;;;;;;;;;;;21.70;99.90;;;;;;5030027;28;19917;-72
2023/01/26 12:40:35;;;;;;;;;;;21.70;99.90;;;;;;5031032;28;19916;-71
2023/01/26 12:43:14;;;;;;;;;;;21.70;99.90;;;;;;5021199;28;19966;-73
2023/01/26 12:45:41;;;;;;;;;;;21.70;99.90;;;;;;5030819;28;19916;-74
2023/01/26 12:48:29;;;;;;;;;;;21.60;99.90;;;;;;5035644;28;19924;-74
2023/01/26 12:51:03;;;;;;;;;;;21.60;99.90;;;;;;5033600;28;20076;-73
2023/01/26 12:53:34;;;;;;;;;;;21.60;99.90;;;;;;5034236;28;19970;-72
2023/01/26 12:56:16;;;;;;;;;;;21.60;99.90;;;;;;5034465;28;20021;-72
2023/01/26 12:58:44;;;;;;;;;;;21.60;99.90;;;;;;5034270;28;19912;-75
2023/01/26 13:01:15;;;;;;;;;;;21.50;99.90;;;;;;5033521;28;19986;-72
2023/01/26 13:03:54;;;;;;;;;;;21.50;99.90;;;;;;5033446;28;19913;-73
2023/01/26 13:06:23;;;;;;;;;;;21.50;99.90;;;;;;5033689;28;19916;-71
2023/01/26 13:08:59;;;;;;;;;;;21.50;99.90;;;;;;5040156;28;19909;-70
2023/01/26 13:11:42;;;;;;;;;;;21.40;99.90;;;;;;5034376;28;20003;-73
2023/01/26 13:14:26;;;;;;;;;;;21.40;99.90;;;;;;5035034;28;19923;-77
2023/01/26 13:16:53;;;;;;;;;;;21.50;99.90;;;;;;5031867;28;19956;-72
2023/01/26 13:19:36;;;;;;;;;;;21.40;99.90;;;;;;5033392;28;19919;-74
2023/01/26 13:22:03;;;;;;;;;;;21.40;99.90;;;;;;5033035;28;19917;-71
2023/01/26 13:24:30;;;;;;;;;;;21.50;99.90;;;;;;5034617;28;19916;-72
2023/01/26 13:26:57;;;;;;;;;;;21.40;99.90;;;;;;5032853;28;19993;-71
2023/01/26 13:29:24;;;;;;;;;;;21.40;99.90;;;;;;5033237;28;19923;-72
2023/01/26 13:31:51;;;;;;;;;;;21.50;99.90;;;;;;5032622;28;20137;-71
2023/01/26 13:34:38;;;;;;;;;;;21.50;99.90;;;;;;5033027;28;19929;-72
2023/01/26 13:37:09;;;;;;;;;;;21.50;99.90;;;;;;5031962;28;19932;-71
2023/01/26 13:39:37;;;;;;;;;;;21.50;99.90;;;;;;5031801;28;20355;-71
2023/01/26 13:42:15;;;;;;;;;;;21.60;99.90;;;;;;5032754;28;20035;-74
2023/01/26 13:44:48;;;;;;;;;;;21.60;99.90;;;;;;5033078;28;20295;-72
2023/01/26 13:47:21;;;;;;;;;;;21.60;99.90;;;;;;5034752;28;19915;-73
2023/01/26 13:49:49;;;;;;;;;;;21.70;99.90;;;;;;5031895;28;19923;-74
2023/01/26 13:52:21;;;;;;;;;;;21.70;99.90;;;;;;5032158;28;19919;-72
2023/01/26 13:54:50;;;;;;;;;;;21.80;99.90;;;;;;5032791;28;20007;-73
2023/01/26 13:57:20;;;;;;;;;;;21.80;99.90;;;;;;5030714;28;20516;-73
2023/01/26 13:59:51;;;;;;;;;;;21.90;99.90;;;;;;5031737;28;19959;-74
2023/01/26 14:02:25;;;;;;;;;;;21.90;99.90;;;;;;5032258;28;19916;-72
2023/01/26 14:04:54;;;;;;;;;;;22.00;99.90;;;;;;5032176;28;20433;-71
2023/01/26 14:07:25;;;;;;;;;;;22.00;99.90;;;;;;5033282;28;20003;-71
2023/01/26 14:09:59;;;;;;;;;;;22.00;99.90;;;;;;5033130;28;19916;-72
2023/01/26 14:12:34;;;;;;;;;;;22.00;99.90;;;;;;5033677;28;19966;-72
2023/01/26 14:15:02;;;;;;;;;;;22.00;99.90;;;;;;5038930;28;19916;-72
2023/01/26 14:17:35;;;;;;;;;;;21.90;99.90;;;;;;5033418;28;19919;-72
2023/01/26 14:20:16;;;;;;;;;;;21.90;99.90;;;;;;5031041;28;20375;-71
2023/01/26 14:22:43;;;;;;;;;;;21.80;99.90;;;;;;5033535;28;19913;-71
2023/01/26 14:25:10;;;;;;;;;;;21.80;99.90;;;;;;5032783;28;19920;-71
2023/01/26 14:27:38;;;;;;;;;;;21.80;99.90;;;;;;5032914;28;19919;-70
2023/01/26 14:30:21;;;;;;;;;;;21.70;99.90;;;;;;5032437;28;19916;-70
2023/01/26 14:32:48;;;;;;;;;;;21.70;99.90;;;;;;5031283;28;20133;-72
2023/01/26 14:35:22;;;;;;;;;;;21.70;99.90;;;;;;5030116;28;20096;-71
2023/01/26 14:37:49;;;;;;;;;;;21.70;99.90;;;;;;5032214;28;19913;-71
2023/01/26 14:40:23;;;;;;;;;;;21.60;99.90;;;;;;5031296;28;19913;-72
2023/01/26 14:42:52;;;;;;;;;;;21.60;99.90;;;;;;5030906;28;20039;-72
2023/01/26 14:45:25;;;;;;;;;;;21.50;99.90;;;;;;5032928;28;19931;-72
2023/01/26 14:47:52;;;;;;;;;;;21.50;99.90;;;;;;5031194;28;19916;-70
2023/01/26 14:50:23;;;;;;;;;;;21.50;99.90;;;;;;5030916;28;20019;-70
2023/01/26 14:52:49;;;;;;;;;;;21.40;99.90;;;;;;5032058;28;19916;-72
2023/01/26 14:55:20;;;;;;;;;;;21.40;99.90;;;;;;5031894;28;19927;-72
2023/01/26 14:57:46;;;;;;;;;;;21.40;99.90;;;;;;5031935;28;20298;-73
2023/01/26 15:00:22;;;;;;;;;;;21.40;99.90;;;;;;5030528;28;19986;-71
2023/01/26 15:02:49;;;;;;;;;;;21.40;99.90;;;;;;5031106;28;19913;-71
2023/01/26 15:05:17;;;;;;;;;;;21.40;99.90;;;;;;5030798;28;20268;-71
2023/01/26 15:07:54;;;;;;;;;;;21.40;99.90;;;;;;5038586;28;19963;-72
2023/01/26 15:10:24;;;;;;;;;;;21.40;99.90;;;;;;5030368;28;19912;-72
2023/01/26 15:13:01;;;;;;;;;;;21.50;99.90;;;;;;5031536;28;19931;-72
2023/01/26 15:15:29;;;;;;;;;;;21.40;99.90;;;;;;5030404;28;19951;-73
2023/01/26 15:18:21;;;;;;;;;;;21.40;99.90;;;;;;5030960;28;19912;-70
2023/01/26 15:20:59;;;;;;;;;;;21.40;99.90;;;;;;5028464;28;19916;-71
2023/01/26 15:23:27;;;;;;;;;;;21.40;99.90;;;;;;5030569;28;19920;-71